Time;durP1;ratioP1;P1;durP2;ratioP2;P2;SDS_P1;SDS_P2;PMS_P1;PMS_P2;Temp;Humidity;BMP_temperature;BMP_pressure;BME280_temperature;BME280_humidity;BME280_pressure;Samples;Min_cycle;Max_cycle;Signal;HPM_P1;HPM_P2
2022/04/06 00:00:26;;;;;;;1.13;1.00;;;;;;;26.66;19.36;97022.88;5071773;28;20043;-79
2022/04/06 00:02:52;;;;;;;1.10;0.90;;;;;;;26.65;19.21;97020.53;5071202;28;20048;-79
2022/04/06 00:05:18;;;;;;;1.13;1.02;;;;;;;26.45;19.71;97015.47;5075779;28;20177;-79
2022/04/06 00:07:45;;;;;;;1.40;0.93;;;;;;;26.63;19.22;97015.38;5067656;28;20043;-79
2022/04/06 00:10:12;;;;;;;1.13;0.90;;;;;;;26.58;19.54;97026.50;5071923;28;20036;-79
2022/04/06 00:12:39;;;;;;;0.80;0.80;;;;;;;26.89;18.91;97017.75;5067942;28;20470;-79
2022/04/06 00:15:10;;;;;;;1.00;0.90;;;;;;;27.14;18.75;97018.06;5069318;28;20035;-79
2022/04/06 00:17:37;;;;;;;0.73;0.70;;;;;;;27.07;18.54;97007.16;5067804;28;20127;-79
2022/04/06 00:20:06;;;;;;;0.88;0.88;;;;;;;26.88;18.82;97019.03;5069512;28;20513;-79
2022/04/06 00:22:32;;;;;;;1.27;0.80;;;;;;;26.54;19.36;97012.59;5068993;28;20083;-79
2022/04/06 00:24:58;;;;;;;0.88;0.88;;;;;;;26.85;18.85;97017.94;5071863;28;20080;-79
2022/04/06 00:27:25;;;;;;;1.42;0.82;;;;;;;26.62;19.03;97013.03;5072874;28;20032;-79
2022/04/06 00:29:51;;;;;;;1.10;0.90;;;;;;;26.78;19.05;97023.16;5075540;28;20036;-79
2022/04/06 00:32:17;;;;;;;0.88;0.77;;;;;;;26.83;18.89;97026.09;5071901;28;20033;-79
2022/04/06 00:37:28;;;;;;;0.82;0.70;;;;;;;27.29;18.71;97026.56;5073196;28;20125;-79
2022/04/06 00:39:54;;;;;;;0.60;0.60;;;;;;;27.34;18.63;97017.44;5071718;28;20135;-79
2022/04/06 00:42:20;;;;;;;1.70;0.95;;;;;;;27.17;18.51;97019.13;5069068;28;20041;-79
2022/04/06 00:44:46;;;;;;;0.70;0.70;;;;;;;27.13;18.83;97024.19;5068043;28;20047;-79
2022/04/06 00:47:13;;;;;;;1.13;1.02;;;;;;;26.55;19.13;97022.63;5067931;28;20410;-79
2022/04/06 00:49:39;;;;;;;0.70;0.70;;;;;;;26.65;19.23;97029.00;5069395;28;20035;-79
2022/04/06 00:52:07;;;;;;;0.82;0.82;;;;;;;26.90;18.87;97024.97;5071868;28;20442;-79
2022/04/06 00:54:34;;;;;;;0.80;0.80;;;;;;;26.79;18.92;97027.53;5073821;28;20171;-79
2022/04/06 00:57:01;;;;;;;0.93;0.70;;;;;;;26.83;18.93;97026.09;5068433;28;20033;-79
2022/04/06 00:59:29;;;;;;;1.08;0.90;;;;;;;26.81;18.99;97011.72;5077617;28;20032;-79
2022/04/06 01:01:57;;;;;;;1.08;0.77;;;;;;;26.68;19.21;97009.09;5072560;28;20028;-79
2022/04/06 01:04:24;;;;;;;0.93;0.90;;;;;;;26.71;19.03;97010.16;5069639;28;20025;-79
2022/04/06 01:06:51;;;;;;;1.02;0.93;;;;;;;26.74;19.22;97014.84;5068100;28;20082;-79
2022/04/06 01:09:19;;;;;;;0.93;0.90;;;;;;;26.51;19.51;97012.78;5064115;28;20996;-79
2022/04/06 01:11:47;;;;;;;0.80;0.80;;;;;;;26.58;19.34;97006.81;5054277;28;20032;-79
2022/04/06 01:14:14;;;;;;;0.70;0.70;;;;;;;26.84;19.26;97005.09;5050739;28;20036;-79
2022/04/06 01:16:40;;;;;;;0.88;0.85;;;;;;;26.90;19.13;97008.84;5049689;28;20470;-79
2022/04/06 01:19:07;;;;;;;1.05;0.90;;;;;;;26.62;19.41;96998.97;5051038;28;20040;-79
2022/04/06 01:21:33;;;;;;;0.50;0.50;;;;;;;26.32;19.60;97011.28;5061752;28;20036;-79
2022/04/06 01:23:59;;;;;;;0.60;0.60;;;;;;;26.53;19.40;97005.44;5058019;28;20108;-79
2022/04/06 01:26:25;;;;;;;0.70;0.70;;;;;;;26.55;19.52;97008.53;5053699;28;20045;-79
2022/04/06 01:28:52;;;;;;;0.90;0.88;;;;;;;26.49;19.65;97018.13;5055046;28;20051;-79
2022/04/06 01:31:18;;;;;;;1.38;0.90;;;;;;;26.11;20.03;97017.94;5055396;28;20086;-79
2022/04/06 01:33:45;;;;;;;0.90;0.90;;;;;;;26.30;19.68;97008.94;5054539;28;20035;-79
2022/04/06 01:36:11;;;;;;;1.05;1.00;;;;;;;25.97;20.29;97006.06;5068922;28;20104;-79
2022/04/06 01:38:37;;;;;;;1.42;1.10;;;;;;;25.87;20.26;97012.16;5068780;28;20438;-78
2022/04/06 01:41:03;;;;;;;1.00;0.90;;;;;;;26.43;19.79;97006.72;5072711;28;20507;-79
2022/04/06 01:43:30;;;;;;;0.82;0.82;;;;;;;26.63;19.73;97008.94;5070092;28;20037;-79
2022/04/06 01:45:56;;;;;;;0.82;0.73;;;;;;;26.67;19.78;97009.56;5069432;28;20032;-79
2022/04/06 01:48:22;;;;;;;1.30;1.20;;;;;;;26.28;19.83;97005.06;5068881;28;20082;-79
2022/04/06 01:53:32;;;;;;;0.90;0.90;;;;;;;27.02;19.40;97021.13;5068605;28;20532;-79
2022/04/06 01:55:59;;;;;;;0.85;0.85;;;;;;;26.70;19.44;97023.47;5072267;28;20036;-78
2022/04/06 01:58:25;;;;;;;1.80;0.90;;;;;;;26.61;19.68;97012.25;5067280;28;20158;-79
2022/04/06 02:00:53;;;;;;;0.90;0.73;;;;;;;26.84;19.47;97012.81;5073140;28;20119;-79
2022/04/06 02:03:19;;;;;;;1.85;0.88;;;;;;;26.66;19.68;97020.06;5066624;28;20166;-79
2022/04/06 02:05:46;;;;;;;1.00;0.90;;;;;;;26.55;19.83;97016.97;5074383;28;20037;-79
2022/04/06 02:08:12;;;;;;;1.15;1.00;;;;;;;26.33;20.16;97022.06;5069393;28;20032;-79
2022/04/06 02:10:39;;;;;;;1.23;1.13;;;;;;;25.94;20.54;97029.50;5065962;28;20131;-79
2022/04/06 02:13:06;;;;;;;1.35;1.10;;;;;;;26.55;19.83;97016.97;5068714;28;20036;-79
2022/04/06 02:15:32;;;;;;;1.10;0.90;;;;;;;26.19;20.22;97019.13;5068792;28;20040;-79
2022/04/06 02:18:00;;;;;;;1.02;1.00;;;;;;;26.25;20.34;97011.63;5077696;28;20036;-79
2022/04/06 02:20:26;;;;;;;1.50;1.30;;;;;;;26.21;20.43;97013.84;5073206;28;21157;-79
2022/04/06 02:22:52;;;;;;;1.88;1.23;;;;;;;25.53;20.95;97018.16;5067019;28;20036;-79
2022/04/06 02:25:18;;;;;;;1.30;1.10;;;;;;;26.06;20.20;97022.13;5066978;28;20131;-79
2022/04/06 02:27:49;;;;;;;1.20;1.10;;;;;;;26.51;20.15;97021.22;5073098;28;20496;-79
2022/04/06 02:30:17;;;;;;;1.23;1.13;;;;;;;26.06;20.53;97025.72;5069971;28;20054;-79
2022/04/06 02:32:44;;;;;;;1.20;1.10;;;;;;;25.82;20.86;97021.25;5067339;28;20046;-79
2022/04/06 02:35:10;;;;;;;1.80;1.38;;;;;;;26.12;20.75;97023.06;5070402;28;20033;-79
2022/04/06 02:37:39;;;;;;;1.58;1.40;;;;;;;26.09;20.82;97018.38;5066493;28;20397;-79
2022/04/06 02:40:06;;;;;;;1.20;1.10;;;;;;;26.17;20.57;97030.09;5069047;28;20489;-79
2022/04/06 02:42:32;;;;;;;1.33;1.23;;;;;;;26.00;20.86;97029.63;5068789;28;20044;-79
2022/04/06 02:44:58;;;;;;;1.48;1.33;;;;;;;26.23;20.59;97014.94;5069540;28;20059;-78
2022/04/06 02:47:24;;;;;;;1.30;0.90;;;;;;;26.12;20.75;97020.25;5072234;28;20035;-79
2022/04/06 02:49:50;;;;;;;1.10;1.00;;;;;;;26.27;20.61;97018.34;5076919;28;20047;-79
2022/04/06 02:52:17;;;;;;;3.05;1.02;;;;;;;26.82;20.04;97010.44;5071289;28;20097;-79
2022/04/06 02:54:43;;;;;;;1.30;1.10;;;;;;;26.89;19.75;97009.31;5070470;28;20033;-79
2022/04/06 02:57:09;;;;;;;0.98;0.98;;;;;;;26.63;19.94;97011.75;5072762;28;20032;-78
2022/04/06 02:59:37;;;;;;;1.00;1.00;;;;;;;26.54;20.36;97015.41;5067699;28;20032;-79
2022/04/06 03:02:03;;;;;;;1.48;1.38;;;;;;;26.24;20.40;97010.84;5065288;28;20432;-79
2022/04/06 03:04:29;;;;;;;1.25;1.15;;;;;;;26.63;20.08;96995.66;5065461;28;20032;-78
2022/04/06 03:06:55;;;;;;;1.77;1.00;;;;;;;26.85;19.83;97017.94;5068425;28;20155;-78
2022/04/06 03:09:21;;;;;;;1.42;1.33;;;;;;;26.97;19.65;97016.16;5066556;28;20463;-78
2022/04/06 03:11:47;;;;;;;0.80;0.73;;;;;;;27.36;19.60;97023.38;5068077;28;20039;-78
2022/04/06 03:14:13;;;;;;;1.20;1.10;;;;;;;27.25;19.36;97021.13;5068167;28;20116;-78
2022/04/06 03:16:39;;;;;;;0.88;0.88;;;;;;;27.47;19.18;97020.81;5069267;28;20036;-78
2022/04/06 03:19:06;;;;;;;0.70;0.70;;;;;;;27.50;19.14;97024.72;5069280;28;20060;-78
2022/04/06 03:21:32;;;;;;;2.05;0.93;;;;;;;27.59;19.01;97024.63;5066492;28;20040;-78
2022/04/06 03:23:58;;;;;;;0.90;0.90;;;;;;;27.59;19.14;97031.06;5073188;28;20040;-78
2022/04/06 03:26:24;;;;;;;1.30;0.90;;;;;;;27.63;19.18;97037.31;5070658;28;20127;-79
2022/04/06 03:28:50;;;;;;;0.70;0.70;;;;;;;27.84;19.06;97032.56;5071449;28;20063;-78
2022/04/06 03:31:16;;;;;;;0.90;0.90;;;;;;;27.82;18.84;97033.03;5070755;28;20114;-80
2022/04/06 03:33:42;;;;;;;0.82;0.80;;;;;;;27.83;18.92;97039.47;5072766;28;20032;-78
2022/04/06 03:36:09;;;;;;;1.83;1.23;;;;;;;26.94;19.72;97034.00;5072202;28;20540;-78
2022/04/06 03:38:35;;;;;;;0.60;0.60;;;;;;;27.25;19.50;97032.41;5071199;28;20032;-78
2022/04/06 03:41:01;;;;;;;2.10;1.15;;;;;;;27.44;19.41;97041.53;5072154;28;20512;-78
2022/04/06 03:43:27;;;;;;;0.50;0.50;;;;;;;27.88;18.84;97036.75;5070116;28;20032;-79
2022/04/06 03:45:53;;;;;;;1.10;0.93;;;;;;;27.74;18.93;97036.72;5076377;28;20569;-79
2022/04/06 03:48:22;;;;;;;0.60;0.60;;;;;;;27.95;18.74;97042.00;5074677;28;20071;-78
2022/04/06 03:50:50;;;;;;;1.30;1.10;;;;;;;27.64;19.00;97044.50;5074247;28;20546;-79
2022/04/06 03:53:16;;;;;;;0.52;0.52;;;;;;;27.86;18.84;97050.56;5072482;28;20032;-79
2022/04/06 03:55:43;;;;;;;0.70;0.70;;;;;;;28.04;18.74;97047.59;5071318;28;20035;-79
2022/04/06 03:58:09;;;;;;;1.00;0.95;;;;;;;27.74;18.86;97048.78;5075570;28;20028;-79
2022/04/06 04:00:35;;;;;;;0.85;0.80;;;;;;;27.34;19.44;97049.25;5074059;28;20127;-78
2022/04/06 04:03:01;;;;;;;2.20;1.15;;;;;;;27.45;19.36;97048.72;5076447;28;21481;-78
2022/04/06 04:05:27;;;;;;;1.35;1.00;;;;;;;27.71;18.90;97052.56;5074220;28;20036;-79
2022/04/06 04:07:53;;;;;;;1.05;0.95;;;;;;;26.39;20.34;97048.34;5076436;28;20036;-79
2022/04/06 04:10:19;;;;;;;1.33;1.25;;;;;;;26.56;20.53;97040.25;5069647;28;20756;-79
2022/04/06 04:12:45;;;;;;;2.13;1.38;;;;;;;26.59;20.28;97044.94;5071736;28;20063;-78
2022/04/06 04:15:11;;;;;;;3.38;2.47;;;;;;;26.95;19.97;97047.63;5072798;28;20093;-79
2022/04/06 04:17:38;;;;;;;3.88;2.45;;;;;;;26.97;19.89;97047.16;5078166;28;20026;-79
2022/04/06 04:20:05;;;;;;;9.57;5.07;;;;;;;26.89;20.00;97046.72;5073265;28;20083;-78
2022/04/06 04:22:31;;;;;;;6.53;3.53;;;;;;;27.24;19.63;97052.59;5072343;28;20114;-78
2022/04/06 04:24:57;;;;;;;10.70;4.85;;;;;;;27.44;19.51;97052.81;5072229;28;20051;-78
2022/04/06 04:27:23;;;;;;;10.07;5.20;;;;;;;27.42;19.38;97058.91;5073549;28;20031;-78
2022/04/06 04:29:49;;;;;;;3.85;1.80;;;;;;;27.42;19.50;97046.88;5070419;28;20043;-78
2022/04/06 04:32:16;;;;;;;5.32;2.05;;;;;;;27.33;19.67;97049.72;5069486;28;20065;-79
2022/04/06 04:34:43;;;;;;;4.68;2.13;;;;;;;27.63;19.22;97048.59;5071082;28;20036;-79
2022/04/06 04:37:09;;;;;;;3.38;1.98;;;;;;;27.13;19.85;97046.72;5077440;28;21249;-78
2022/04/06 04:39:35;;;;;;;7.95;2.42;;;;;;;27.48;19.54;97052.59;5072050;28;20037;-79
2022/04/06 04:42:01;;;;;;;5.75;2.33;;;;;;;27.15;19.68;97050.63;5076194;28;20142;-79
2022/04/06 04:44:27;;;;;;;4.03;1.60;;;;;;;27.53;19.59;97061.19;5076076;28;20052;-80
2022/04/06 04:46:53;;;;;;;4.75;2.13;;;;;;;27.42;19.75;97056.09;5074301;28;20040;-80
2022/04/06 04:49:19;;;;;;;7.20;3.30;;;;;;;26.97;19.88;97059.19;5078021;28;20032;-80
2022/04/06 04:51:45;;;;;;;7.38;3.08;;;;;;;27.25;19.81;97063.41;5073165;28;20485;-79
2022/04/06 04:54:11;;;;;;;4.80;2.15;;;;;;;27.31;19.55;97064.28;5077236;28;20028;-79
2022/04/06 04:56:40;;;;;;;7.35;3.78;;;;;;;27.56;19.77;97070.72;5075801;28;20078;-78
2022/04/06 04:59:06;;;;;;;9.57;4.32;;;;;;;27.45;19.61;97074.09;5074179;28;20033;-78
2022/04/06 05:01:32;;;;;;;18.27;8.27;;;;;;;27.08;20.06;97072.75;5081793;28;20036;-78
2022/04/06 05:03:58;;;;;;;11.15;4.53;;;;;;;27.13;20.23;97077.72;5076396;28;20032;-78
2022/04/06 05:06:25;;;;;;;7.72;4.07;;;;;;;27.52;19.73;97087.81;5078135;28;20550;-79
2022/04/06 05:08:51;;;;;;;10.05;3.00;;;;;;;26.97;20.23;97080.94;5078056;28;20028;-79
2022/04/06 05:11:17;;;;;;;12.70;4.15;;;;;;;26.97;20.34;97080.94;5075314;28;20037;-79
2022/04/06 05:13:43;;;;;;;7.85;2.70;;;;;;;27.21;20.01;97078.94;5072098;28;20024;-79
2022/04/06 05:16:09;;;;;;;10.18;3.75;;;;;;;27.45;19.96;97088.19;5077432;28;20071;-80
2022/04/06 05:18:38;;;;;;;10.95;4.43;;;;;;;27.48;19.76;97089.25;5075112;28;20452;-80
2022/04/06 05:21:05;;;;;;;7.72;3.42;;;;;;;27.42;19.56;97092.75;5074840;28;20032;-79
2022/04/06 05:23:31;;;;;;;9.68;3.30;;;;;;;27.49;19.82;97104.94;5076575;28;20454;-82
2022/04/06 05:25:57;;;;;;;6.93;3.00;;;;;;;27.66;19.59;97101.19;5070959;28;20506;-78
2022/04/06 05:28:23;;;;;;;13.25;4.72;;;;;;;27.40;19.65;97115.00;5075305;28;20086;-80
2022/04/06 05:30:49;;;;;;;7.43;2.80;;;;;;;27.50;19.72;97117.75;5074918;28;20040;-79
2022/04/06 05:33:15;;;;;;;9.65;3.50;;;;;;;27.40;19.89;97105.75;5076069;28;20515;-80
2022/04/06 05:35:41;;;;;;;12.63;3.28;;;;;;;27.71;19.88;97125.13;5080899;28;20436;-79
2022/04/06 05:38:07;;;;;;;5.78;2.17;;;;;;;27.93;19.45;97126.38;5080682;28;20024;-79
2022/04/06 05:40:33;;;;;;;8.40;2.65;;;;;;;28.08;19.31;97128.47;5076464;28;20032;-79
2022/04/06 05:42:59;;;;;;;6.10;2.45;;;;;;;28.18;19.26;97116.59;5079164;28;20032;-79
2022/04/06 05:45:25;;;;;;;12.98;3.28;;;;;;;28.25;19.38;97132.38;5077369;28;20494;-79
2022/04/06 05:47:51;;;;;;;10.40;2.55;;;;;;;27.81;19.55;97133.06;5078709;28;20040;-79
2022/04/06 05:50:17;;;;;;;16.77;5.13;;;;;;;28.06;19.46;97126.91;5078708;28;20442;-79
2022/04/06 05:52:44;;;;;;;8.68;3.05;;;;;;;27.54;20.07;97126.84;5075744;28;20055;-80
2022/04/06 05:55:10;;;;;;;5.40;2.20;;;;;;;28.10;19.47;97138.00;5077992;28;20036;-79
2022/04/06 05:57:36;;;;;;;5.93;2.40;;;;;;;28.05;19.69;97138.69;5081903;28;20039;-79
2022/04/06 06:00:06;;;;;;;5.90;2.90;;;;;;;27.89;19.57;97136.28;5076060;28;20386;-80
2022/04/06 06:02:33;;;;;;;5.23;2.77;;;;;;;27.93;19.51;97136.88;5077679;28;20486;-80
2022/04/06 06:04:59;;;;;;;2.97;1.60;;;;;;;27.88;19.53;97137.53;5078727;28;20063;-80
2022/04/06 06:07:25;;;;;;;5.75;3.17;;;;;;;27.73;19.99;97131.84;5079583;28;20036;-80
2022/04/06 06:09:51;;;;;;;4.85;2.08;;;;;;;28.20;19.66;97135.88;5077766;28;20082;-80
2022/04/06 06:12:17;;;;;;;3.40;1.95;;;;;;;27.81;20.12;97138.69;5076864;28;20033;-80
2022/04/06 06:14:43;;;;;;;4.85;1.85;;;;;;;27.72;20.23;97138.75;5078745;28;20068;-80
2022/04/06 06:17:09;;;;;;;2.35;1.75;;;;;;;28.20;19.69;97136.66;5079645;28;20028;-80
2022/04/06 07:24:11;;;;;;;4.32;1.30;;;;;;;29.08;19.13;97164.94;4580349;28;20124;-80
2022/04/06 07:26:37;;;;;;;6.35;1.30;;;;;;;28.42;19.54;97161.72;5031586;28;20045;-78
2022/04/06 07:29:03;;;;;;;1.33;1.20;;;;;;;27.68;20.31;97159.97;5034173;28;20080;-79
2022/04/06 07:31:30;;;;;;;2.33;1.20;;;;;;;27.68;20.25;97159.97;5034948;28;20956;-78
2022/04/06 07:33:56;;;;;;;1.40;1.00;;;;;;;28.38;19.84;97172.41;5037180;28;20029;-79
2022/04/06 07:36:22;;;;;;;1.10;1.00;;;;;;;27.86;20.36;97173.91;5037821;28;20384;-79
2022/04/06 07:38:48;;;;;;;1.50;0.95;;;;;;;27.73;20.46;97165.69;5034387;28;20079;-79
2022/04/06 07:41:14;;;;;;;1.15;0.90;;;;;;;27.62;20.89;97168.28;5035056;28;20049;-79
2022/04/06 07:43:40;;;;;;;0.82;0.77;;;;;;;28.33;20.28;97176.69;5037731;28;20040;-79
2022/04/06 07:46:07;;;;;;;1.50;1.40;;;;;;;28.21;20.43;97172.09;5038811;28;20025;-79
2022/04/06 07:48:34;;;;;;;1.05;0.80;;;;;;;28.74;19.86;97177.72;5036942;28;20391;-79
2022/04/06 07:51:00;;;;;;;2.17;1.02;;;;;;;28.86;19.38;97178.69;5038079;28;20033;-79
2022/04/06 07:53:26;;;;;;;6.60;1.38;;;;;;;28.22;20.25;97167.22;5035514;28;20033;-79
2022/04/06 07:55:52;;;;;;;3.20;1.00;;;;;;;28.83;19.78;97169.13;5038621;28;20052;-79
2022/04/06 07:58:18;;;;;;;8.55;1.33;;;;;;;29.12;19.56;97171.16;5033167;28;20026;-79
2022/04/06 08:00:45;;;;;;;10.23;1.50;;;;;;;28.73;19.87;97162.81;5038551;28;20506;-79
2022/04/06 08:03:11;;;;;;;1.10;1.00;;;;;;;28.72;20.06;97166.13;5033313;28;20449;-79
2022/04/06 08:05:37;;;;;;;0.80;0.73;;;;;;;28.74;19.89;97170.03;5037662;28;20029;-79
2022/04/06 08:08:04;;;;;;;1.00;0.80;;;;;;;29.57;19.92;97164.13;5030453;28;20116;-79
2022/04/06 08:10:30;;;;;;;0.60;0.60;;;;;;;30.17;19.58;97169.03;5034733;28;20041;-79
2022/04/06 08:12:56;;;;;;;1.20;0.75;;;;;;;29.11;19.77;97167.53;5037565;28;20037;-78
2022/04/06 08:15:22;;;;;;;0.90;0.77;;;;;;;29.04;19.06;97162.28;5042235;28;20479;-79
2022/04/06 08:17:49;;;;;;;0.50;0.50;;;;;;;29.65;19.36;97168.88;5041341;28;20029;-79
2022/04/06 08:20:16;;;;;;;0.75;0.60;;;;;;;29.23;19.70;97177.78;5037811;28;20072;-79
2022/04/06 08:22:45;;;;;;;4.00;0.70;;;;;;;29.53;19.09;97163.53;5039988;28;20029;-79
2022/04/06 08:25:13;;;;;;;1.38;0.73;;;;;;;29.91;19.18;97169.00;5061712;28;20089;-79
2022/04/06 08:27:41;;;;;;;0.50;0.43;;;;;;;29.72;19.34;97171.28;5077546;28;20028;-79
2022/04/06 08:30:10;;;;;;;9.38;1.23;;;;;;;29.32;20.03;97171.22;5078515;28;20067;-79
2022/04/06 08:32:37;;;;;;;10.25;0.88;;;;;;;29.20;19.79;97167.44;5075945;28;20067;-79
2022/04/06 08:35:03;;;;;;;1.25;0.60;;;;;;;28.85;19.95;97160.16;5081769;28;20033;-79
2022/04/06 08:37:33;;;;;;;0.65;0.55;;;;;;;28.72;19.97;97161.25;5079562;28;20032;-79
2022/04/06 08:39:59;;;;;;;1.70;0.60;;;;;;;28.50;20.24;97168.50;5079998;28;20485;-79
2022/04/06 08:42:27;;;;;;;0.50;0.50;;;;;;;28.47;20.21;97178.72;5078206;28;20108;-79
2022/04/06 08:44:54;;;;;;;0.60;0.40;;;;;;;28.87;20.75;97180.25;5077102;28;20024;-79
2022/04/06 08:47:20;;;;;;;0.50;0.50;;;;;;;29.12;20.07;97177.59;5077918;28;20486;-79
2022/04/06 08:49:47;;;;;;;3.22;0.70;;;;;;;29.68;19.85;97176.38;5080493;28;20044;-79
2022/04/06 08:52:16;;;;;;;0.98;0.77;;;;;;;29.18;19.83;97189.00;5079565;28;20028;-79
2022/04/06 08:54:43;;;;;;;0.60;0.60;;;;;;;28.96;19.95;97186.59;5080429;28;20367;-79
2022/04/06 08:57:09;;;;;;;0.90;0.90;;;;;;;28.62;20.67;97192.91;5078321;28;20123;-79
2022/04/06 08:59:35;;;;;;;0.73;0.73;;;;;;;29.01;19.90;97190.75;5080317;28;20025;-79
2022/04/06 09:02:02;;;;;;;6.55;0.88;;;;;;;28.94;19.74;97189.09;5080576;28;20028;-79
2022/04/06 09:04:31;;;;;;;6.18;0.82;;;;;;;29.23;19.53;97206.06;5074361;28;20052;-79
2022/04/06 09:07:07;;;;;;;4.20;1.13;;;;;;;29.21;19.63;97199.34;5077175;28;20436;-78
2022/04/06 09:09:35;;;;;;;0.60;0.57;;;;;;;29.19;19.40;97194.19;5077634;28;20128;-78
2022/04/06 09:12:09;;;;;;;2.75;0.77;;;;;;;28.88;20.14;97187.44;5080166;28;20031;-79
2022/04/06 09:14:36;;;;;;;1.55;0.80;;;;;;;28.17;20.80;97190.50;5080637;28;20162;-79
2022/04/06 09:17:04;;;;;;;1.00;0.70;;;;;;;28.48;20.35;97185.94;5076103;28;20444;-79
2022/04/06 09:19:30;;;;;;;1.10;0.75;;;;;;;28.73;20.40;97198.75;5076942;28;20028;-79
2022/04/06 09:21:57;;;;;;;0.88;0.70;;;;;;;28.77;20.11;97198.56;5080999;28;20028;-79
2022/04/06 09:24:25;;;;;;;1.42;0.90;;;;;;;28.19;21.14;97188.75;5080817;28;20029;-79
2022/04/06 09:26:59;;;;;;;1.95;0.70;;;;;;;28.63;20.50;97186.00;5078472;28;20535;-78
2022/04/06 09:29:26;;;;;;;7.93;2.15;;;;;;;28.27;20.74;97186.31;5084546;28;20557;-78
2022/04/06 09:31:52;;;;;;;11.77;1.20;;;;;;;28.68;20.38;97199.44;5075612;28;20025;-79
2022/04/06 09:34:23;;;;;;;6.15;1.00;;;;;;;28.65;20.12;97189.13;5078600;28;20489;-79
2022/04/06 09:37:08;;;;;;;22.08;2.72;;;;;;;28.22;20.44;97201.09;5075032;28;20044;-79
2022/04/06 09:39:44;;;;;;;3.03;0.90;;;;;;;28.66;20.21;97202.75;5079688;28;20032;-78
2022/04/06 09:42:17;;;;;;;0.90;0.70;;;;;;;29.18;19.77;97195.44;5077127;28;20493;-79
2022/04/06 09:47:39;;;;;;;0.73;0.63;;;;;;;29.03;19.89;97205.19;5078560;28;20120;-78
2022/04/06 09:50:14;;;;;;;2.20;0.88;;;;;;;29.35;19.82;97199.31;5076566;28;20024;-79
2022/04/06 09:52:43;;;;;;;0.60;0.50;;;;;;;29.61;19.72;97196.59;5077164;28;20028;-78
2022/04/06 09:55:11;;;;;;;0.50;0.50;;;;;;;29.97;19.69;97189.63;5077781;28;20074;-79
2022/04/06 09:57:50;;;;;;;2.70;1.45;;;;;;;30.11;19.48;97179.53;5076203;28;20032;-79
2022/04/06 10:00:21;;;;;;;1.55;0.60;;;;;;;30.24;19.29;97180.72;5080277;28;20028;-79
2022/04/06 10:03:05;;;;;;;2.50;0.57;;;;;;;30.43;18.82;97182.00;5080232;28;20507;-79
2022/04/06 10:05:33;;;;;;;7.05;0.93;;;;;;;30.73;18.36;97180.50;5079155;28;20080;-79
2022/04/06 10:08:07;;;;;;;1.83;0.47;;;;;;;30.64;18.83;97179.88;5077726;28;20481;-79
2022/04/06 10:10:34;;;;;;;2.42;0.70;;;;;;;29.28;18.97;97168.63;5078206;28;20036;-78
2022/04/06 10:13:04;;;;;;;0.70;0.63;;;;;;;29.53;19.18;97177.69;5077988;28;20070;-79
2022/04/06 10:15:31;;;;;;;0.50;0.50;;;;;;;29.87;18.79;97169.19;5075707;28;20028;-78
2022/04/06 10:17:57;;;;;;;0.52;0.47;;;;;;;29.96;19.63;97163.41;5078936;28;20039;-79
2022/04/06 10:20:35;;;;;;;0.60;0.60;;;;;;;30.37;18.72;97164.13;5075387;28;20044;-79
2022/04/06 10:23:39;;;;;;;1.50;0.60;;;;;;;30.87;18.88;97155.34;5071137;28;20559;-79
2022/04/06 10:26:39;;;;;;;0.60;0.47;;;;;;;30.79;18.23;97163.53;5080418;28;20413;-79
2022/04/06 10:29:06;;;;;;;0.50;0.50;;;;;;;31.26;18.12;97168.56;5079071;28;20047;-79
2022/04/06 10:31:32;;;;;;;0.40;0.40;;;;;;;30.83;18.57;97163.31;5076464;28;20499;-78
2022/04/06 10:34:25;;;;;;;1.27;0.45;;;;;;;30.83;18.69;97166.91;5076545;28;20044;-78
2022/04/06 10:37:15;;;;;;;0.95;0.32;;;;;;;30.94;17.91;97166.25;5078658;28;20393;-78
2022/04/06 10:39:54;;;;;;;0.30;0.30;;;;;;;31.10;17.91;97171.28;5071799;28;20478;-79
2022/04/06 10:42:37;;;;;;;0.40;0.40;;;;;;;31.29;17.63;97159.06;5077077;28;20032;-79
2022/04/06 10:45:27;;;;;;;0.30;0.30;;;;;;;30.87;17.68;97161.78;5076204;28;20070;-79
2022/04/06 10:48:09;;;;;;;0.63;0.20;;;;;;;30.76;17.81;97164.50;5069432;28;20044;-79
2022/04/06 10:50:35;;;;;;;11.13;1.83;;;;;;;31.05;18.03;97161.47;5075686;28;20040;-79
2022/04/06 10:53:22;;;;;;;18.83;2.53;;;;;;;31.37;17.69;97165.81;5077318;28;20103;-79
2022/04/06 10:56:17;;;;;;;12.93;3.03;;;;;;;31.62;17.48;97160.59;5077324;28;20031;-78
2022/04/06 10:58:58;;;;;;;11.60;1.63;;;;;;;31.16;17.57;97158.69;5079130;28;20029;-78
2022/04/06 11:01:31;;;;;;;6.30;0.73;;;;;;;30.32;18.51;97169.72;5074955;28;20086;-79
2022/04/06 11:04:03;;;;;;;36.38;4.05;;;;;;;28.51;20.39;97153.13;5076746;28;20043;-78
2022/04/06 11:06:43;;;;;;;7.72;1.13;;;;;;;28.45;20.01;97167.16;5076583;28;20028;-78
2022/04/06 11:12:15;;;;;;;43.95;2.58;;;;;;;28.11;20.78;97176.25;5081453;28;20047;-78
2022/04/06 11:14:48;;;;;;;;;;;;;;;28.38;19.91;97158.31;5076467;28;20020;-79
2022/04/06 11:17:37;;;;;;;9.70;1.63;;;;;;;29.36;19.38;97175.41;5078023;28;19916;-79
2022/04/06 11:20:15;;;;;;;12.05;1.27;;;;;;;29.66;19.52;97152.69;5073281;28;20033;-79
2022/04/06 11:22:44;;;;;;;9.93;1.27;;;;;;;30.18;19.23;97148.72;5077164;28;20059;-79
2022/04/06 11:25:15;;;;;;;7.38;1.02;;;;;;;30.02;18.82;97149.28;5079114;28;20119;-79
2022/04/06 11:27:46;;;;;;;4.70;0.70;;;;;;;30.30;18.64;97156.06;5079876;28;20036;-79
2022/04/06 11:30:21;;;;;;;13.88;1.58;;;;;;;29.19;19.24;97148.94;5078835;28;20039;-79
2022/04/06 11:32:57;;;;;;;3.63;0.88;;;;;;;29.10;19.82;97151.06;5074488;28;20126;-79
2022/04/06 11:35:28;;;;;;;2.13;0.73;;;;;;;29.74;19.26;97157.41;5079485;28;20481;-79
2022/04/06 11:37:55;;;;;;;3.53;0.68;;;;;;;30.68;18.53;97141.53;5079352;28;20025;-79
2022/04/06 11:40:22;;;;;;;2.28;0.63;;;;;;;31.47;17.41;97137.25;5073896;28;20629;-80
2022/04/06 11:42:50;;;;;;;14.25;1.20;;;;;;;31.79;17.04;97124.53;5081206;28;20044;-79
2022/04/06 11:45:24;;;;;;;0.60;0.30;;;;;;;31.87;17.54;97123.53;5077212;28;20473;-79
2022/04/06 11:47:55;;;;;;;0.65;0.32;;;;;;;31.77;17.54;97127.88;5081617;28;20032;-79
2022/04/06 11:50:22;;;;;;;0.40;0.40;;;;;;;31.90;16.88;97125.34;5080130;28;20402;-79
2022/04/06 11:52:49;;;;;;;0.73;0.35;;;;;;;31.76;16.65;97125.56;5084141;28;20393;-79
2022/04/06 11:55:15;;;;;;;3.45;0.40;;;;;;;32.31;17.21;97122.91;5078121;28;20522;-79
2022/04/06 11:57:46;;;;;;;2.38;0.30;;;;;;;32.71;16.45;97131.03;5077507;28;20445;-79
2022/04/06 12:00:15;;;;;;;0.30;0.30;;;;;;;32.65;16.43;97120.94;5081222;28;20024;-79
2022/04/06 12:02:55;;;;;;;0.55;0.30;;;;;;;32.35;16.82;97109.22;5081712;28;20036;-79
2022/04/06 12:05:23;;;;;;;1.13;0.50;;;;;;;32.64;16.49;97114.47;5080851;28;20025;-79
2022/04/06 12:08:07;;;;;;;0.30;0.30;;;;;;;32.55;16.30;97117.56;5078905;28;20036;-79
2022/04/06 12:10:33;;;;;;;0.38;0.30;;;;;;;32.40;16.39;97117.00;5076993;28;20089;-79
2022/04/06 12:12:59;;;;;;;0.32;0.30;;;;;;;32.45;16.60;97126.81;5084154;28;20032;-79
2022/04/06 12:15:25;;;;;;;0.45;0.20;;;;;;;32.48;16.47;97108.75;5082327;28;20028;-79
2022/04/06 12:17:52;;;;;;;0.57;0.20;;;;;;;32.48;16.62;97117.28;5079413;28;20039;-79
2022/04/06 12:20:25;;;;;;;0.43;0.43;;;;;;;32.27;16.27;97111.03;5080621;28;20461;-79
2022/04/06 12:23:03;;;;;;;0.20;0.20;;;;;;;32.46;16.10;97112.13;5082789;28;20056;-79
2022/04/06 12:25:30;;;;;;;0.52;0.40;;;;;;;31.79;17.43;97105.44;5077465;28;20044;-79
2022/04/06 12:28:18;;;;;;;0.30;0.30;;;;;;;32.02;16.38;97101.41;5079633;28;20123;-79
2022/04/06 12:31:05;;;;;;;0.30;0.30;;;;;;;31.75;16.99;97102.06;5078561;28;23204;-79
2022/04/06 12:33:32;;;;;;;0.32;0.30;;;;;;;32.06;16.39;97086.97;5077913;28;20031;-79
2022/04/06 12:36:20;;;;;;;0.38;0.38;;;;;;;31.84;16.49;97099.00;5080631;28;20185;-78
2022/04/06 12:39:14;;;;;;;1.27;0.40;;;;;;;31.36;16.47;97087.66;5078554;28;20035;-79
2022/04/06 12:41:57;;;;;;;0.63;0.40;;;;;;;31.68;16.01;97091.19;5082053;28;20060;-78
2022/04/06 12:44:23;;;;;;;0.20;0.20;;;;;;;32.14;16.04;97090.84;5079137;28;20104;-78
2022/04/06 12:46:50;;;;;;;0.30;0.30;;;;;;;31.06;17.08;97080.78;5074426;28;20040;-78
2022/04/06 12:49:26;;;;;;;0.60;0.30;;;;;;;31.52;16.44;97071.25;5083011;28;20020;-77
2022/04/06 12:52:22;;;;;;;0.40;0.30;;;;;;;31.57;16.58;97073.34;5081515;28;20037;-78
2022/04/06 12:55:00;;;;;;;0.32;0.30;;;;;;;31.56;16.77;97072.56;5079399;28;20051;-78
2022/04/06 12:57:26;;;;;;;0.40;0.40;;;;;;;31.59;16.57;97070.78;5080556;28;20035;-78